sensor_id;sensor_type;location;lat;lon;timestamp;P1;durP1;ratioP1;P2;durP2;ratioP2
53644;SDS011;39547;45.554;12.068;2023-03-01T00:03:37;23.00;;;9.65;;
53644;SDS011;39547;45.554;12.068;2023-03-01T00:09:38;22.77;;;10.15;;
53644;SDS011;39547;45.554;12.068;2023-03-01T00:15:40;24.65;;;10.20;;
53644;SDS011;39547;45.554;12.068;2023-03-01T00:21:42;21.50;;;9.40;;
53644;SDS011;39547;45.554;12.068;2023-03-01T00:27:44;22.48;;;9.20;;
53644;SDS011;39547;45.554;12.068;2023-03-01T00:33:47;24.77;;;10.20;;
53644;SDS011;39547;45.554;12.068;2023-03-01T00:39:49;25.60;;;10.48;;
53644;SDS011;39547;45.554;12.068;2023-03-01T00:45:51;21.05;;;8.32;;
53644;SDS011;39547;45.554;12.068;2023-03-01T00:51:52;23.02;;;9.07;;
53644;SDS011;39547;45.554;12.068;2023-03-01T00:57:54;23.55;;;9.27;;
53644;SDS011;39547;45.554;12.068;2023-03-01T01:03:56;22.90;;;9.05;;
53644;SDS011;39547;45.554;12.068;2023-03-01T01:09:59;21.85;;;8.90;;
53644;SDS011;39547;45.554;12.068;2023-03-01T01:16:01;23.98;;;9.52;;
53644;SDS011;39547;45.554;12.068;2023-03-01T01:22:03;22.63;;;8.93;;
53644;SDS011;39547;45.554;12.068;2023-03-01T01:28:04;21.63;;;8.80;;
53644;SDS011;39547;45.554;12.068;2023-03-01T01:34:06;18.95;;;7.32;;
53644;SDS011;39547;45.554;12.068;2023-03-01T01:40:13;24.40;;;8.90;;
53644;SDS011;39547;45.554;12.068;2023-03-01T01:46:30;21.63;;;9.05;;
53644;SDS011;39547;45.554;12.068;2023-03-01T01:52:34;22.35;;;8.90;;
53644;SDS011;39547;45.554;12.068;2023-03-01T02:04:40;22.05;;;7.60;;
53644;SDS011;39547;45.554;12.068;2023-03-01T02:10:42;25.98;;;9.63;;
53644;SDS011;39547;45.554;12.068;2023-03-01T02:16:44;20.40;;;8.90;;
53644;SDS011;39547;45.554;12.068;2023-03-01T02:22:46;20.30;;;8.32;;
53644;SDS011;39547;45.554;12.068;2023-03-01T02:28:49;20.55;;;8.48;;
53644;SDS011;39547;45.554;12.068;2023-03-01T02:34:52;21.25;;;8.35;;
53644;SDS011;39547;45.554;12.068;2023-03-01T02:40:57;22.27;;;8.95;;
53644;SDS011;39547;45.554;12.068;2023-03-01T02:47:00;21.45;;;8.38;;
53644;SDS011;39547;45.554;12.068;2023-03-01T02:53:06;19.30;;;7.85;;
53644;SDS011;39547;45.554;12.068;2023-03-01T02:59:29;21.63;;;8.23;;
53644;SDS011;39547;45.554;12.068;2023-03-01T03:05:40;19.92;;;7.63;;
53644;SDS011;39547;45.554;12.068;2023-03-01T03:11:42;19.48;;;7.88;;
53644;SDS011;39547;45.554;12.068;2023-03-01T03:17:45;18.67;;;7.38;;
53644;SDS011;39547;45.554;12.068;2023-03-01T03:23:46;20.15;;;7.35;;
53644;SDS011;39547;45.554;12.068;2023-03-01T03:29:48;18.35;;;7.35;;
53644;SDS011;39547;45.554;12.068;2023-03-01T03:35:50;20.00;;;7.57;;
53644;SDS011;39547;45.554;12.068;2023-03-01T03:41:51;19.05;;;7.70;;
53644;SDS011;39547;45.554;12.068;2023-03-01T03:47:53;18.80;;;7.10;;
53644;SDS011;39547;45.554;12.068;2023-03-01T03:53:55;19.67;;;7.65;;
53644;SDS011;39547;45.554;12.068;2023-03-01T03:59:56;19.52;;;7.25;;
53644;SDS011;39547;45.554;12.068;2023-03-01T04:05:58;19.42;;;7.80;;
53644;SDS011;39547;45.554;12.068;2023-03-01T04:12:00;17.95;;;6.78;;
53644;SDS011;39547;45.554;12.068;2023-03-01T04:18:02;17.25;;;6.72;;
53644;SDS011;39547;45.554;12.068;2023-03-01T04:24:04;17.95;;;6.97;;
53644;SDS011;39547;45.554;12.068;2023-03-01T04:30:06;18.17;;;7.07;;
53644;SDS011;39547;45.554;12.068;2023-03-01T04:36:10;19.60;;;7.78;;
53644;SDS011;39547;45.554;12.068;2023-03-01T04:42:12;18.85;;;7.28;;
53644;SDS011;39547;45.554;12.068;2023-03-01T04:48:14;17.60;;;6.85;;
53644;SDS011;39547;45.554;12.068;2023-03-01T04:54:16;18.65;;;6.85;;
53644;SDS011;39547;45.554;12.068;2023-03-01T05:00:17;18.52;;;7.25;;
53644;SDS011;39547;45.554;12.068;2023-03-01T05:12:23;17.90;;;6.82;;
53644;SDS011;39547;45.554;12.068;2023-03-01T05:18:25;19.60;;;7.38;;
53644;SDS011;39547;45.554;12.068;2023-03-01T05:24:28;18.00;;;6.60;;
53644;SDS011;39547;45.554;12.068;2023-03-01T05:30:32;17.50;;;6.90;;
53644;SDS011;39547;45.554;12.068;2023-03-01T05:36:34;18.73;;;7.15;;
53644;SDS011;39547;45.554;12.068;2023-03-01T05:42:36;17.30;;;6.72;;
53644;SDS011;39547;45.554;12.068;2023-03-01T05:48:37;18.02;;;6.90;;
53644;SDS011;39547;45.554;12.068;2023-03-01T05:54:39;17.65;;;7.00;;
53644;SDS011;39547;45.554;12.068;2023-03-01T06:00:41;17.80;;;6.65;;
53644;SDS011;39547;45.554;12.068;2023-03-01T06:06:43;18.05;;;6.47;;
53644;SDS011;39547;45.554;12.068;2023-03-01T06:12:45;16.65;;;6.47;;
53644;SDS011;39547;45.554;12.068;2023-03-01T06:18:47;19.50;;;7.63;;
53644;SDS011;39547;45.554;12.068;2023-03-01T06:24:48;16.50;;;6.32;;
53644;SDS011;39547;45.554;12.068;2023-03-01T06:30:50;17.27;;;6.43;;
53644;SDS011;39547;45.554;12.068;2023-03-01T06:36:52;16.92;;;6.30;;
53644;SDS011;39547;45.554;12.068;2023-03-01T06:42:54;16.80;;;6.65;;
53644;SDS011;39547;45.554;12.068;2023-03-01T06:48:55;16.48;;;6.10;;
53644;SDS011;39547;45.554;12.068;2023-03-01T06:54:57;17.80;;;6.72;;
53644;SDS011;39547;45.554;12.068;2023-03-01T07:00:58;19.67;;;7.80;;
53644;SDS011;39547;45.554;12.068;2023-03-01T07:07:00;19.92;;;7.47;;
53644;SDS011;39547;45.554;12.068;2023-03-01T07:13:02;17.17;;;6.65;;
53644;SDS011;39547;45.554;12.068;2023-03-01T07:19:03;18.55;;;7.85;;
53644;SDS011;39547;45.554;12.068;2023-03-01T07:25:06;19.35;;;7.28;;
53644;SDS011;39547;45.554;12.068;2023-03-01T07:31:07;16.70;;;6.63;;
53644;SDS011;39547;45.554;12.068;2023-03-01T07:37:09;16.83;;;6.40;;
53644;SDS011;39547;45.554;12.068;2023-03-01T07:43:11;18.30;;;7.00;;
53644;SDS011;39547;45.554;12.068;2023-03-01T07:49:12;16.83;;;6.85;;
53644;SDS011;39547;45.554;12.068;2023-03-01T07:55:14;17.83;;;6.93;;
53644;SDS011;39547;45.554;12.068;2023-03-01T08:01:17;16.95;;;6.30;;
53644;SDS011;39547;45.554;12.068;2023-03-01T08:07:20;16.02;;;6.25;;
53644;SDS011;39547;45.554;12.068;2023-03-01T08:13:21;15.27;;;5.80;;
53644;SDS011;39547;45.554;12.068;2023-03-01T08:19:23;19.08;;;7.30;;
53644;SDS011;39547;45.554;12.068;2023-03-01T08:25:24;16.85;;;6.38;;
53644;SDS011;39547;45.554;12.068;2023-03-01T08:31:27;17.35;;;6.13;;
53644;SDS011;39547;45.554;12.068;2023-03-01T08:37:37;17.45;;;6.28;;
53644;SDS011;39547;45.554;12.068;2023-03-01T08:43:39;16.25;;;5.57;;
53644;SDS011;39547;45.554;12.068;2023-03-01T08:49:40;14.40;;;5.50;;
53644;SDS011;39547;45.554;12.068;2023-03-01T08:55:42;14.00;;;5.38;;
53644;SDS011;39547;45.554;12.068;2023-03-01T09:01:43;15.70;;;5.93;;
53644;SDS011;39547;45.554;12.068;2023-03-01T09:07:45;14.95;;;5.70;;
53644;SDS011;39547;45.554;12.068;2023-03-01T09:13:47;17.85;;;6.70;;
53644;SDS011;39547;45.554;12.068;2023-03-01T09:19:49;15.57;;;5.93;;
53644;SDS011;39547;45.554;12.068;2023-03-01T09:25:52;15.50;;;5.55;;
53644;SDS011;39547;45.554;12.068;2023-03-01T09:31:53;15.05;;;5.07;;
53644;SDS011;39547;45.554;12.068;2023-03-01T09:37:57;16.02;;;4.70;;
53644;SDS011;39547;45.554;12.068;2023-03-01T09:44:03;15.10;;;4.85;;
53644;SDS011;39547;45.554;12.068;2023-03-01T09:50:11;15.40;;;5.10;;
53644;SDS011;39547;45.554;12.068;2023-03-01T09:56:19;15.73;;;5.20;;
53644;SDS011;39547;45.554;12.068;2023-03-01T10:08:51;14.63;;;5.10;;
53644;SDS011;39547;45.554;12.068;2023-03-01T10:15:02;16.48;;;5.63;;
53644;SDS011;39547;45.554;12.068;2023-03-01T10:21:15;17.75;;;5.47;;
53644;SDS011;39547;45.554;12.068;2023-03-01T10:33:49;16.80;;;5.18;;
53644;SDS011;39547;45.554;12.068;2023-03-01T10:40:05;16.83;;;4.88;;
53644;SDS011;39547;45.554;12.068;2023-03-01T10:52:32;16.88;;;4.88;;
53644;SDS011;39547;45.554;12.068;2023-03-01T10:58:39;17.17;;;4.90;;
53644;SDS011;39547;45.554;12.068;2023-03-01T11:05:39;18.65;;;5.15;;
53644;SDS011;39547;45.554;12.068;2023-03-01T11:11:33;17.70;;;5.20;;
53644;SDS011;39547;45.554;12.068;2023-03-01T11:17:35;17.13;;;4.95;;
53644;SDS011;39547;45.554;12.068;2023-03-01T11:23:40;16.07;;;4.90;;
53644;SDS011;39547;45.554;12.068;2023-03-01T11:29:49;14.40;;;5.07;;
53644;SDS011;39547;45.554;12.068;2023-03-01T11:36:05;18.35;;;5.63;;
53644;SDS011;39547;45.554;12.068;2023-03-01T11:48:46;17.52;;;5.35;;
53644;SDS011;39547;45.554;12.068;2023-03-01T12:34:07;16.90;;;5.67;;
53644;SDS011;39547;45.554;12.068;2023-03-01T12:53:02;16.60;;;5.70;;
53644;SDS011;39547;45.554;12.068;2023-03-01T12:59:12;17.42;;;5.43;;
53644;SDS011;39547;45.554;12.068;2023-03-01T13:11:52;16.50;;;5.30;;
53644;SDS011;39547;45.554;12.068;2023-03-01T13:17:55;16.20;;;5.20;;
53644;SDS011;39547;45.554;12.068;2023-03-01T13:23:59;19.67;;;5.93;;
53644;SDS011;39547;45.554;12.068;2023-03-01T13:30:01;15.43;;;5.55;;
53644;SDS011;39547;45.554;12.068;2023-03-01T13:36:06;16.40;;;5.03;;
53644;SDS011;39547;45.554;12.068;2023-03-01T13:48:30;14.40;;;5.28;;
53644;SDS011;39547;45.554;12.068;2023-03-01T13:54:32;13.55;;;4.80;;
53644;SDS011;39547;45.554;12.068;2023-03-01T14:00:35;14.63;;;5.00;;
53644;SDS011;39547;45.554;12.068;2023-03-01T14:06:38;14.32;;;5.07;;
53644;SDS011;39547;45.554;12.068;2023-03-01T14:12:54;14.85;;;4.95;;
53644;SDS011;39547;45.554;12.068;2023-03-01T14:19:21;13.60;;;4.65;;
53644;SDS011;39547;45.554;12.068;2023-03-01T14:25:30;13.98;;;5.15;;
53644;SDS011;39547;45.554;12.068;2023-03-01T14:31:37;14.23;;;4.65;;
53644;SDS011;39547;45.554;12.068;2023-03-01T14:37:39;14.35;;;5.10;;
53644;SDS011;39547;45.554;12.068;2023-03-01T14:43:42;15.00;;;5.18;;
53644;SDS011;39547;45.554;12.068;2023-03-01T14:49:46;13.68;;;4.75;;
53644;SDS011;39547;45.554;12.068;2023-03-01T14:55:56;14.70;;;4.97;;
53644;SDS011;39547;45.554;12.068;2023-03-01T15:02:03;13.57;;;4.78;;
53644;SDS011;39547;45.554;12.068;2023-03-01T15:08:05;13.45;;;4.53;;
53644;SDS011;39547;45.554;12.068;2023-03-01T15:14:36;13.48;;;4.55;;
53644;SDS011;39547;45.554;12.068;2023-03-01T15:20:43;13.30;;;4.70;;
53644;SDS011;39547;45.554;12.068;2023-03-01T15:45:32;13.52;;;4.57;;
53644;SDS011;39547;45.554;12.068;2023-03-01T15:51:40;13.00;;;4.50;;
53644;SDS011;39547;45.554;12.068;2023-03-01T15:57:42;12.65;;;4.22;;
53644;SDS011;39547;45.554;12.068;2023-03-01T16:03:44;17.35;;;5.32;;
53644;SDS011;39547;45.554;12.068;2023-03-01T16:09:46;17.33;;;6.15;;
53644;SDS011;39547;45.554;12.068;2023-03-01T16:15:47;16.30;;;6.25;;
53644;SDS011;39547;45.554;12.068;2023-03-01T16:21:48;15.05;;;5.45;;
53644;SDS011;39547;45.554;12.068;2023-03-01T16:27:50;15.27;;;5.50;;
53644;SDS011;39547;45.554;12.068;2023-03-01T16:33:56;17.15;;;7.18;;
53644;SDS011;39547;45.554;12.068;2023-03-01T16:39:58;16.50;;;6.05;;
53644;SDS011;39547;45.554;12.068;2023-03-01T16:46:00;16.02;;;5.85;;
53644;SDS011;39547;45.554;12.068;2023-03-01T16:52:01;15.57;;;6.00;;
53644;SDS011;39547;45.554;12.068;2023-03-01T16:58:03;17.58;;;6.75;;
53644;SDS011;39547;45.554;12.068;2023-03-01T17:04:04;16.55;;;6.05;;
53644;SDS011;39547;45.554;12.068;2023-03-01T17:10:07;15.32;;;5.78;;
53644;SDS011;39547;45.554;12.068;2023-03-01T17:16:11;15.00;;;5.45;;
53644;SDS011;39547;45.554;12.068;2023-03-01T17:22:16;15.77;;;5.68;;
53644;SDS011;39547;45.554;12.068;2023-03-01T17:28:18;16.83;;;5.63;;
53644;SDS011;39547;45.554;12.068;2023-03-01T17:34:19;16.95;;;6.50;;
53644;SDS011;39547;45.554;12.068;2023-03-01T17:40:21;15.35;;;5.35;;
53644;SDS011;39547;45.554;12.068;2023-03-01T17:46:22;15.15;;;5.43;;
53644;SDS011;39547;45.554;12.068;2023-03-01T17:52:24;15.07;;;5.38;;
53644;SDS011;39547;45.554;12.068;2023-03-01T17:58:26;14.90;;;5.57;;
53644;SDS011;39547;45.554;12.068;2023-03-01T18:04:28;14.13;;;5.20;;
53644;SDS011;39547;45.554;12.068;2023-03-01T18:10:30;14.15;;;5.28;;
53644;SDS011;39547;45.554;12.068;2023-03-01T18:16:32;16.33;;;6.15;;
53644;SDS011;39547;45.554;12.068;2023-03-01T18:22:34;17.02;;;6.65;;
53644;SDS011;39547;45.554;12.068;2023-03-01T18:28:35;15.90;;;6.70;;
53644;SDS011;39547;45.554;12.068;2023-03-01T18:34:37;14.18;;;5.55;;
53644;SDS011;39547;45.554;12.068;2023-03-01T18:40:40;13.55;;;4.82;;
53644;SDS011;39547;45.554;12.068;2023-03-01T18:46:42;13.27;;;4.70;;
53644;SDS011;39547;45.554;12.068;2023-03-01T18:52:45;14.88;;;5.22;;
53644;SDS011;39547;45.554;12.068;2023-03-01T18:58:47;13.45;;;4.70;;
53644;SDS011;39547;45.554;12.068;2023-03-01T19:04:49;15.93;;;6.10;;
53644;SDS011;39547;45.554;12.068;2023-03-01T19:10:56;14.75;;;5.40;;
53644;SDS011;39547;45.554;12.068;2023-03-01T19:16:58;15.13;;;6.10;;
53644;SDS011;39547;45.554;12.068;2023-03-01T19:22:59;15.43;;;6.10;;
53644;SDS011;39547;45.554;12.068;2023-03-01T19:29:01;14.43;;;4.88;;
53644;SDS011;39547;45.554;12.068;2023-03-01T19:35:03;13.93;;;4.95;;
53644;SDS011;39547;45.554;12.068;2023-03-01T19:41:06;13.38;;;4.80;;
53644;SDS011;39547;45.554;12.068;2023-03-01T19:47:11;17.83;;;6.38;;
53644;SDS011;39547;45.554;12.068;2023-03-01T19:53:13;20.08;;;7.10;;
53644;SDS011;39547;45.554;12.068;2023-03-01T19:59:16;13.80;;;4.85;;
53644;SDS011;39547;45.554;12.068;2023-03-01T20:05:19;12.60;;;4.13;;
53644;SDS011;39547;45.554;12.068;2023-03-01T20:11:20;12.20;;;4.13;;
53644;SDS011;39547;45.554;12.068;2023-03-01T20:17:22;12.52;;;4.22;;
53644;SDS011;39547;45.554;12.068;2023-03-01T20:23:23;12.85;;;4.60;;
53644;SDS011;39547;45.554;12.068;2023-03-01T20:29:25;12.70;;;4.30;;
53644;SDS011;39547;45.554;12.068;2023-03-01T20:35:26;16.02;;;5.10;;
53644;SDS011;39547;45.554;12.068;2023-03-01T20:41:32;13.77;;;5.00;;
53644;SDS011;39547;45.554;12.068;2023-03-01T20:47:33;14.13;;;5.13;;
53644;SDS011;39547;45.554;12.068;2023-03-01T20:53:35;15.18;;;5.20;;
53644;SDS011;39547;45.554;12.068;2023-03-01T20:59:36;14.65;;;5.30;;
53644;SDS011;39547;45.554;12.068;2023-03-01T21:05:38;14.85;;;5.53;;
53644;SDS011;39547;45.554;12.068;2023-03-01T21:11:39;13.52;;;5.10;;
53644;SDS011;39547;45.554;12.068;2023-03-01T21:17:40;14.60;;;5.25;;
53644;SDS011;39547;45.554;12.068;2023-03-01T21:23:42;14.18;;;5.38;;
53644;SDS011;39547;45.554;12.068;2023-03-01T21:29:45;15.77;;;5.32;;
53644;SDS011;39547;45.554;12.068;2023-03-01T21:35:46;14.77;;;5.13;;
53644;SDS011;39547;45.554;12.068;2023-03-01T21:41:48;13.35;;;4.60;;
53644;SDS011;39547;45.554;12.068;2023-03-01T21:47:50;13.70;;;4.65;;
53644;SDS011;39547;45.554;12.068;2023-03-01T21:53:53;13.13;;;4.55;;
53644;SDS011;39547;45.554;12.068;2023-03-01T21:59:55;13.77;;;4.63;;
53644;SDS011;39547;45.554;12.068;2023-03-01T22:05:57;14.73;;;4.93;;
53644;SDS011;39547;45.554;12.068;2023-03-01T22:12:00;13.65;;;4.90;;
53644;SDS011;39547;45.554;12.068;2023-03-01T22:18:02;14.25;;;4.75;;
53644;SDS011;39547;45.554;12.068;2023-03-01T22:24:04;14.73;;;5.28;;
53644;SDS011;39547;45.554;12.068;2023-03-01T22:30:07;13.90;;;4.75;;
53644;SDS011;39547;45.554;12.068;2023-03-01T22:42:12;14.10;;;5.25;;
53644;SDS011;39547;45.554;12.068;2023-03-01T22:48:14;14.85;;;5.47;;
53644;SDS011;39547;45.554;12.068;2023-03-01T22:54:15;13.68;;;4.95;;
53644;SDS011;39547;45.554;12.068;2023-03-01T23:00:18;16.05;;;5.95;;
53644;SDS011;39547;45.554;12.068;2023-03-01T23:06:20;14.13;;;5.20;;
53644;SDS011;39547;45.554;12.068;2023-03-01T23:12:22;14.45;;;5.15;;
53644;SDS011;39547;45.554;12.068;2023-03-01T23:18:23;14.38;;;5.40;;
53644;SDS011;39547;45.554;12.068;2023-03-01T23:24:25;13.35;;;4.40;;
53644;SDS011;39547;45.554;12.068;2023-03-01T23:30:31;16.00;;;5.10;;
53644;SDS011;39547;45.554;12.068;2023-03-01T23:36:32;12.98;;;4.75;;
53644;SDS011;39547;45.554;12.068;2023-03-01T23:42:34;14.02;;;4.88;;
53644;SDS011;39547;45.554;12.068;2023-03-01T23:48:35;14.35;;;4.70;;
53644;SDS011;39547;45.554;12.068;2023-03-01T23:54:37;13.55;;;4.60;;
